createdAt,value
2023-03-11T00:01:28.151Z,97384.09
2023-03-11T00:03:57.144Z,97379.73
2023-03-11T00:06:25.950Z,97377.39
2023-03-11T00:08:56.665Z,97369.99
2023-03-11T00:11:25.864Z,97362.98
2023-03-11T00:13:56.394Z,97356.14
2023-03-11T00:16:25.405Z,97350.70
2023-03-11T00:19:00.628Z,97349.21
2023-03-11T00:21:29.618Z,97338.70
2023-03-11T00:24:01.476Z,97334.74
2023-03-11T00:26:31.004Z,97336.70
2023-03-11T00:28:59.872Z,97329.52
2023-03-11T00:31:29.475Z,97329.86
2023-03-11T00:34:17.823Z,97331.13
2023-03-11T00:36:46.930Z,97325.27
2023-03-11T00:39:15.911Z,97319.77
2023-03-11T00:41:46.053Z,97316.20
2023-03-11T00:44:15.749Z,97314.30
2023-03-11T00:46:44.321Z,97309.58
2023-03-11T00:49:13.415Z,97299.54
2023-03-11T00:51:42.409Z,97296.11
2023-03-11T00:54:12.428Z,97289.70
2023-03-11T00:56:42.049Z,97288.02
2023-03-11T00:59:12.560Z,97285.84
2023-03-11T01:01:41.309Z,97283.12
2023-03-11T01:04:10.989Z,97286.06
2023-03-11T01:06:45.670Z,97278.91
2023-03-11T01:09:14.574Z,97269.45
2023-03-11T01:11:45.305Z,97266.64
2023-03-11T01:14:14.001Z,97261.86
2023-03-11T01:16:42.980Z,97257.91
2023-03-11T01:19:11.540Z,97253.34
2023-03-11T01:21:41.176Z,97252.89
2023-03-11T01:24:09.762Z,97252.61
2023-03-11T01:26:42.537Z,97240.45
2023-03-11T01:29:11.632Z,97231.61
2023-03-11T01:31:40.436Z,97219.35
2023-03-11T01:34:08.900Z,97211.61
2023-03-11T01:36:41.654Z,97204.46
2023-03-11T01:39:10.573Z,97194.14
2023-03-11T01:41:39.139Z,97188.51
2023-03-11T01:44:11.220Z,97179.20
2023-03-11T01:46:52.875Z,97173.42
2023-03-11T01:49:25.379Z,97160.85
2023-03-11T01:51:57.958Z,97158.37
2023-03-11T01:54:28.605Z,97157.73
2023-03-11T01:56:57.275Z,97151.20
2023-03-11T01:59:28.945Z,97140.66
2023-03-11T02:02:06.982Z,97132.85
2023-03-11T02:04:37.371Z,97122.30
2023-03-11T02:07:07.380Z,97111.17
2023-03-11T02:09:42.127Z,97106.98
2023-03-11T02:12:11.709Z,97101.14
2023-03-11T02:14:41.019Z,97097.59
2023-03-11T02:17:11.951Z,97091.67
2023-03-11T02:19:49.854Z,97085.77
2023-03-11T02:22:18.964Z,97082.54
2023-03-11T02:24:56.855Z,97073.70
2023-03-11T02:27:27.265Z,97068.73
2023-03-11T02:29:57.196Z,97058.20
2023-03-11T02:32:25.733Z,97052.54
2023-03-11T02:34:54.975Z,97052.98
2023-03-11T02:37:23.769Z,97041.89
2023-03-11T02:40:09.765Z,97037.84
2023-03-11T02:42:39.159Z,97026.36
2023-03-11T02:45:09.691Z,97016.42
2023-03-11T02:47:38.481Z,97016.88
2023-03-11T02:50:08.762Z,97011.06
2023-03-11T02:52:37.787Z,97005.92
2023-03-11T02:55:07.607Z,96998.34
2023-03-11T02:57:36.659Z,96994.02
2023-03-11T03:00:17.063Z,96988.83
2023-03-11T03:02:59.252Z,96985.18
2023-03-11T03:05:28.662Z,96984.92
2023-03-11T03:07:59.180Z,96979.37
2023-03-11T03:10:28.380Z,96977.38
2023-03-11T03:13:03.410Z,96971.19
2023-03-11T03:15:33.945Z,96969.80
2023-03-11T03:18:04.160Z,96975.09
2023-03-11T03:20:36.227Z,96968.33
2023-03-11T03:23:05.332Z,96963.34
2023-03-11T03:25:34.423Z,96961.80
2023-03-11T03:28:05.971Z,96967.38
2023-03-11T03:30:37.425Z,96961.06
2023-03-11T03:33:06.516Z,96953.58
2023-03-11T03:35:36.046Z,96943.45
2023-03-11T03:38:28.369Z,96943.28
2023-03-11T03:40:57.762Z,96947.56
2023-03-11T03:43:26.550Z,96952.05
2023-03-11T03:45:57.199Z,96942.14
2023-03-11T03:48:26.379Z,96941.95
2023-03-11T03:50:55.268Z,96942.14
2023-03-11T03:53:24.629Z,96935.52
2023-03-11T03:55:56.121Z,96918.83
2023-03-11T03:58:26.838Z,96918.27
2023-03-11T04:00:56.318Z,96913.51
2023-03-11T04:03:26.263Z,96910.30
2023-03-11T04:06:09.912Z,96899.91
2023-03-11T04:08:42.800Z,96902.30
2023-03-11T04:11:11.998Z,96909.25
2023-03-11T04:13:40.404Z,96913.27
2023-03-11T04:16:10.185Z,96920.77
2023-03-11T04:18:40.407Z,96920.73
2023-03-11T04:21:09.298Z,96917.77
2023-03-11T04:23:38.600Z,96911.02
2023-03-11T04:26:08.099Z,96909.35
2023-03-11T04:28:37.705Z,96907.20
2023-03-11T04:31:06.337Z,96902.52
2023-03-11T04:33:37.328Z,96905.12
2023-03-11T04:36:07.558Z,96897.69
2023-03-11T04:38:36.844Z,96889.98
2023-03-11T04:41:06.872Z,96877.79
2023-03-11T04:43:36.367Z,96871.89
2023-03-11T04:46:05.308Z,96860.48
2023-03-11T04:48:35.169Z,96850.51
2023-03-11T04:51:04.163Z,96844.27
2023-03-11T04:53:36.228Z,96831.47
2023-03-11T04:56:05.321Z,96827.63
2023-03-11T04:58:34.928Z,96820.86
2023-03-11T05:01:03.818Z,96815.58
2023-03-11T05:03:33.556Z,96804.36
2023-03-11T05:06:05.491Z,96796.98
2023-03-11T05:08:34.380Z,96797.36
2023-03-11T05:11:03.069Z,96788.32
2023-03-11T05:13:31.870Z,96780.13
2023-03-11T05:16:01.111Z,96782.64
2023-03-11T05:18:32.811Z,96774.98
2023-03-11T05:21:02.008Z,96769.11
2023-03-11T05:23:33.632Z,96766.15
2023-03-11T05:26:02.817Z,96767.62
2023-03-11T05:28:32.377Z,96769.94
2023-03-11T05:31:02.398Z,96764.38
2023-03-11T05:33:36.186Z,96763.98
2023-03-11T05:36:06.616Z,96757.00
2023-03-11T05:38:36.219Z,96744.16
2023-03-11T05:41:05.015Z,96733.48
2023-03-11T05:43:34.206Z,96726.39
2023-03-11T05:46:02.995Z,96715.08
2023-03-11T05:48:32.073Z,96713.05
2023-03-11T05:51:00.884Z,96708.08
2023-03-11T05:53:30.186Z,96704.65
2023-03-11T05:55:59.826Z,96701.16
2023-03-11T05:58:29.761Z,96701.97
2023-03-11T06:01:00.378Z,96703.42
2023-03-11T06:03:34.444Z,96704.21
2023-03-11T06:06:03.452Z,96705.33
2023-03-11T06:08:34.807Z,96704.24
2023-03-11T06:11:08.302Z,96706.90
2023-03-11T06:13:41.472Z,96699.98
2023-03-11T06:16:11.404Z,96703.05
2023-03-11T06:18:43.170Z,96699.88
2023-03-11T06:21:18.690Z,96698.25
2023-03-11T06:23:47.485Z,96699.02
2023-03-11T06:26:18.221Z,96691.23
2023-03-11T06:28:48.440Z,96688.90
2023-03-11T06:31:18.226Z,96679.65
2023-03-11T06:33:47.540Z,96669.15
2023-03-11T06:36:16.884Z,96664.48
2023-03-11T06:38:47.061Z,96652.96
2023-03-11T06:41:16.923Z,96647.25
2023-03-11T06:43:45.870Z,96646.52
2023-03-11T06:46:18.759Z,96637.25
2023-03-11T06:48:47.308Z,96628.88
2023-03-11T06:51:16.841Z,96624.20
2023-03-11T06:53:50.383Z,96617.22
2023-03-11T06:56:24.585Z,96612.73
2023-03-11T06:58:57.399Z,96604.92
2023-03-11T07:01:28.560Z,96603.69
2023-03-11T07:03:58.192Z,96597.52
2023-03-11T07:06:27.903Z,96593.29
2023-03-11T07:09:16.966Z,96577.90
2023-03-11T07:11:46.956Z,96572.98
2023-03-11T07:14:20.559Z,96559.55
2023-03-11T07:16:53.091Z,96552.87
2023-03-11T07:19:28.187Z,96546.29
2023-03-11T07:21:57.385Z,96535.41
2023-03-11T07:24:28.024Z,96524.64
2023-03-11T07:26:56.805Z,96518.46
2023-03-11T07:29:25.591Z,96514.47
2023-03-11T07:31:54.520Z,96502.60
2023-03-11T07:34:25.010Z,96490.99
2023-03-11T07:36:54.408Z,96480.80
2023-03-11T07:39:23.114Z,96476.14
2023-03-11T07:41:51.782Z,96462.45
2023-03-11T07:44:20.672Z,96451.98
2023-03-11T07:46:49.699Z,96445.42
2023-03-11T07:49:21.226Z,96432.23
2023-03-11T07:51:50.720Z,96426.71
2023-03-11T07:54:19.413Z,96412.97
2023-03-11T07:56:49.642Z,96412.69
2023-03-11T07:59:18.744Z,96411.20
2023-03-11T08:01:47.540Z,96401.14
2023-03-11T08:04:17.337Z,96393.71
2023-03-11T08:06:46.215Z,96391.97
2023-03-11T08:09:14.390Z,96378.67
2023-03-11T08:11:44.921Z,96371.92
2023-03-11T08:14:13.087Z,96365.73
2023-03-11T08:16:41.676Z,96361.91
2023-03-11T08:19:12.551Z,96357.62
2023-03-11T08:21:41.955Z,96357.79
2023-03-11T08:24:12.042Z,96359.55
2023-03-11T08:26:41.639Z,96362.74
2023-03-11T08:29:11.552Z,96362.91
2023-03-11T08:31:41.693Z,96372.21
2023-03-11T08:34:11.601Z,96364.28
2023-03-11T08:36:40.489Z,96368.90
2023-03-11T08:39:09.844Z,96374.02
2023-03-11T08:41:38.673Z,96375.08
2023-03-11T08:44:07.496Z,96384.84
2023-03-11T08:46:37.354Z,96396.56
2023-03-11T08:49:07.194Z,96406.55
2023-03-11T08:51:36.380Z,96410.48
2023-03-11T08:54:11.172Z,96419.51
2023-03-11T08:56:39.808Z,96429.59
2023-03-11T08:59:08.898Z,96443.55
2023-03-11T09:01:38.283Z,96452.34
2023-03-11T09:04:06.977Z,96462.98
2023-03-11T09:06:37.597Z,96473.14
2023-03-11T09:09:06.088Z,96478.34
2023-03-11T09:11:37.648Z,96490.35
2023-03-11T09:14:08.785Z,96494.39
2023-03-11T09:16:38.677Z,96492.29
2023-03-11T09:19:08.118Z,96488.38
2023-03-11T09:21:37.100Z,96480.31
2023-03-11T09:24:06.284Z,96479.23
2023-03-11T09:26:36.767Z,96473.65
2023-03-11T09:29:05.500Z,96479.90
2023-03-11T09:31:33.956Z,96471.16
2023-03-11T09:34:02.337Z,96466.70
2023-03-11T09:36:31.051Z,96460.17
2023-03-11T09:39:00.656Z,96455.12
2023-03-11T09:41:55.261Z,96445.96
2023-03-11T09:44:42.685Z,96432.16
2023-03-11T09:47:24.668Z,96424.10
2023-03-11T09:50:03.796Z,96405.41
2023-03-11T09:52:43.875Z,96403.67
2023-03-11T09:55:25.668Z,96393.02
2023-03-11T09:57:54.328Z,96378.21
2023-03-11T10:00:23.815Z,96372.60
2023-03-11T10:02:52.900Z,96359.52
2023-03-11T10:05:26.423Z,96354.44
2023-03-11T10:08:10.470Z,96340.52
2023-03-11T10:10:41.106Z,96327.92
2023-03-11T10:13:23.936Z,96316.56
2023-03-11T10:16:05.447Z,96303.63
2023-03-11T10:18:37.252Z,96290.59
2023-03-11T10:21:09.403Z,96284.77
2023-03-11T10:23:53.986Z,96277.64
2023-03-11T10:26:30.148Z,96263.32
2023-03-11T10:29:08.151Z,96250.61
2023-03-11T10:31:40.456Z,96241.40
2023-03-11T10:34:15.970Z,96232.96
2023-03-11T10:36:53.459Z,96228.44
2023-03-11T10:39:22.353Z,96217.38
2023-03-11T10:41:52.568Z,96216.48
2023-03-11T10:44:34.572Z,96208.98
2023-03-11T10:47:04.174Z,96206.48
2023-03-11T10:49:36.205Z,96201.52
2023-03-11T10:52:10.308Z,96196.02
2023-03-11T10:54:46.496Z,96188.27
2023-03-11T10:57:23.208Z,96171.13
2023-03-11T10:59:55.178Z,96168.81
2023-03-11T11:02:34.212Z,96166.70
2023-03-11T11:05:06.833Z,96162.23
2023-03-11T11:07:37.773Z,96160.84
2023-03-11T11:10:10.376Z,96159.37
2023-03-11T11:13:00.748Z,96156.91
2023-03-11T11:15:31.793Z,96150.56
2023-03-11T11:18:03.015Z,96139.53
2023-03-11T11:20:32.779Z,96135.96
2023-03-11T11:23:02.807Z,96126.59
2023-03-11T11:25:39.493Z,96108.04
2023-03-11T11:28:17.643Z,96103.38
2023-03-11T11:30:53.386Z,96099.72
2023-03-11T11:33:27.220Z,96092.75
2023-03-11T11:35:57.792Z,96088.86
2023-03-11T11:38:28.245Z,96083.58
2023-03-11T11:40:59.759Z,96074.19
2023-03-11T11:43:49.296Z,96070.80
2023-03-11T11:46:27.584Z,96067.00
2023-03-11T11:49:17.350Z,96060.48
2023-03-11T11:51:52.402Z,96046.81
2023-03-11T11:54:35.442Z,96045.52
2023-03-11T11:57:10.789Z,96041.84
2023-03-11T11:59:39.680Z,96033.13
2023-03-11T12:02:27.823Z,96024.84
2023-03-11T12:05:29.219Z,96002.80
2023-03-11T12:08:16.485Z,95988.25
2023-03-11T12:11:01.597Z,95979.50
2023-03-11T12:13:50.315Z,95971.48
2023-03-11T12:16:33.957Z,95966.07
2023-03-11T12:19:26.188Z,95951.14
2023-03-11T12:21:59.892Z,95943.15
2023-03-11T12:24:47.279Z,95942.88
2023-03-11T12:27:20.409Z,95939.42
2023-03-11T12:29:50.772Z,95940.40
2023-03-11T12:32:30.079Z,95936.89
2023-03-11T12:35:04.839Z,95940.99
2023-03-11T12:37:34.100Z,95941.14
2023-03-11T12:40:22.981Z,95937.58
2023-03-11T12:42:52.149Z,95940.93
2023-03-11T12:45:43.884Z,95942.67
2023-03-11T12:48:25.812Z,95942.60
2023-03-11T12:50:57.808Z,95951.39
2023-03-11T12:53:45.676Z,95949.64
2023-03-11T12:56:29.514Z,95943.77
2023-03-11T12:59:15.499Z,95946.49
2023-03-11T13:01:47.293Z,95942.86
2023-03-11T13:04:24.826Z,95939.48
2023-03-11T13:07:15.657Z,95932.98
2023-03-11T13:09:55.759Z,95928.17
2023-03-11T13:12:51.388Z,95926.56
2023-03-11T13:15:20.636Z,95917.53
2023-03-11T13:18:00.889Z,95914.12
2023-03-11T13:20:41.738Z,95901.56
2023-03-11T13:23:13.792Z,95895.91
2023-03-11T13:25:43.434Z,95901.64
2023-03-11T13:28:17.856Z,95900.08
2023-03-11T13:30:50.924Z,95893.66
2023-03-11T13:33:37.040Z,95888.14
2023-03-11T13:36:19.477Z,95883.27
2023-03-11T13:38:56.328Z,95873.83
2023-03-11T13:41:27.149Z,95868.00
2023-03-11T13:43:56.078Z,95866.36
2023-03-11T13:46:29.204Z,95861.72
2023-03-11T13:49:03.351Z,95856.46
2023-03-11T13:51:32.115Z,95859.36
2023-03-11T13:54:20.396Z,95855.11
2023-03-11T13:56:51.441Z,95842.06
2023-03-11T13:59:24.404Z,95839.04
2023-03-11T14:01:54.690Z,95835.89
2023-03-11T14:04:25.695Z,95838.83
2023-03-11T14:06:54.941Z,95834.42
2023-03-11T14:09:24.821Z,95829.38
2023-03-11T14:11:54.805Z,95832.86
2023-03-11T14:14:31.472Z,95831.19
2023-03-11T14:17:04.181Z,95821.38
2023-03-11T14:19:33.752Z,95818.19
2023-03-11T14:22:02.645Z,95824.14
2023-03-11T14:24:31.538Z,95813.96
2023-03-11T14:27:00.425Z,95806.55
2023-03-11T14:29:29.519Z,95804.02
2023-03-11T14:32:00.005Z,95799.71
2023-03-11T14:34:30.372Z,95802.84
2023-03-11T14:36:59.416Z,95798.38
2023-03-11T14:39:31.852Z,95795.64
2023-03-11T14:42:20.173Z,95791.99
2023-03-11T14:44:55.518Z,95784.65
2023-03-11T14:47:28.097Z,95790.84
2023-03-11T14:49:58.020Z,95790.23
2023-03-11T14:52:29.808Z,95788.55
2023-03-11T14:54:59.068Z,95783.62
2023-03-11T14:57:48.689Z,95785.42
2023-03-11T15:00:19.720Z,95780.33
2023-03-11T15:03:08.443Z,95781.63
2023-03-11T15:05:39.583Z,95779.40
2023-03-11T15:08:10.422Z,95781.66
2023-03-11T15:10:41.153Z,95787.33
2023-03-11T15:13:14.143Z,95782.16
2023-03-11T15:15:42.925Z,95781.20
2023-03-11T15:18:22.154Z,95783.68
2023-03-11T15:21:09.562Z,95785.73
2023-03-11T15:23:45.727Z,95780.52
2023-03-11T15:26:18.115Z,95775.45
2023-03-11T15:28:46.833Z,95775.24
2023-03-11T15:31:23.498Z,95770.64
2023-03-11T15:33:52.567Z,95770.97
2023-03-11T15:36:32.210Z,95771.13
2023-03-11T15:39:07.141Z,95767.64
2023-03-11T15:41:36.219Z,95769.35
2023-03-11T15:44:08.343Z,95772.94
2023-03-11T15:46:38.559Z,95777.44
2023-03-11T15:49:13.029Z,95773.94
2023-03-11T15:51:43.353Z,95778.55
2023-03-11T15:54:15.124Z,95781.98
2023-03-11T15:56:44.623Z,95783.66
2023-03-11T15:59:14.544Z,95777.67
2023-03-11T16:01:43.662Z,95775.89
2023-03-11T16:04:13.549Z,95771.04
2023-03-11T16:06:43.873Z,95774.88
2023-03-11T16:09:13.183Z,95780.70
2023-03-11T16:11:42.377Z,95780.32
2023-03-11T16:14:16.723Z,95787.72
2023-03-11T16:16:45.883Z,95781.93
2023-03-11T16:19:15.405Z,95783.22
2023-03-11T16:21:47.231Z,95792.35
2023-03-11T16:24:18.286Z,95794.70
2023-03-11T16:26:47.870Z,95788.34
2023-03-11T16:29:19.563Z,95793.38
2023-03-11T16:31:49.787Z,95792.64
2023-03-11T16:34:22.147Z,95798.35
2023-03-11T16:36:51.454Z,95803.16
2023-03-11T16:39:20.874Z,95802.20
2023-03-11T16:41:50.053Z,95802.30
2023-03-11T16:44:21.502Z,95806.80
2023-03-11T16:46:51.296Z,95807.73
2023-03-11T16:49:21.226Z,95813.02
2023-03-11T16:51:51.140Z,95807.77
2023-03-11T16:54:20.032Z,95809.09
2023-03-11T16:56:51.593Z,95804.11
2023-03-11T16:59:20.478Z,95808.02
2023-03-11T17:01:49.397Z,95798.93
2023-03-11T17:04:18.366Z,95798.57
2023-03-11T17:06:46.993Z,95798.75
2023-03-11T17:09:15.845Z,95794.14
2023-03-11T17:11:44.629Z,95786.55
2023-03-11T17:14:16.982Z,95780.60
2023-03-11T17:16:46.691Z,95770.56
2023-03-11T17:19:21.538Z,95761.98
2023-03-11T17:21:50.421Z,95756.80
2023-03-11T17:24:19.349Z,95757.61
2023-03-11T17:26:48.308Z,95754.47
2023-03-11T17:29:17.915Z,95753.29
2023-03-11T17:31:46.734Z,95756.23
2023-03-11T17:34:16.230Z,95749.29
2023-03-11T17:36:45.514Z,95753.48
2023-03-11T17:39:15.017Z,95752.40
2023-03-11T17:41:44.223Z,95752.33
2023-03-11T17:44:14.585Z,95743.02
2023-03-11T17:46:45.020Z,95740.67
2023-03-11T17:49:14.254Z,95740.06
2023-03-11T17:51:43.350Z,95731.87
2023-03-11T17:54:13.345Z,95725.16
2023-03-11T17:56:43.624Z,95723.67
2023-03-11T17:59:12.567Z,95714.48
2023-03-11T18:01:41.718Z,95708.27
2023-03-11T18:04:10.748Z,95700.88
2023-03-11T18:06:40.458Z,95698.33
2023-03-11T18:09:09.579Z,95686.11
2023-03-11T18:11:39.357Z,95681.54
2023-03-11T18:14:08.543Z,95681.46
2023-03-11T18:16:37.292Z,95677.79
2023-03-11T18:27:20.374Z,95655.04
2023-03-11T18:29:49.357Z,95666.13
2023-03-11T18:32:18.355Z,95666.45
2023-03-11T18:34:51.654Z,95662.84
2023-03-11T18:37:22.590Z,95665.61
2023-03-11T18:39:52.569Z,95665.95
2023-03-11T18:42:21.902Z,95656.35
2023-03-11T18:44:54.992Z,95656.38
2023-03-11T18:47:24.442Z,95653.80
2023-03-11T18:49:53.181Z,95648.78
2023-03-11T18:52:22.790Z,95642.58
2023-03-11T18:54:51.881Z,95640.24
2023-03-11T18:57:20.686Z,95635.08
2023-03-11T18:59:51.304Z,95626.73
2023-03-11T19:02:21.432Z,95627.64
2023-03-11T19:04:50.951Z,95622.05
2023-03-11T19:07:20.078Z,95617.63
2023-03-11T19:09:50.278Z,95619.58
2023-03-11T19:12:20.674Z,95607.86
2023-03-11T19:14:49.627Z,95603.48
2023-03-11T19:17:24.094Z,95595.89
2023-03-11T19:19:53.036Z,95588.27
2023-03-11T19:22:24.951Z,95575.03
2023-03-11T19:24:54.237Z,95565.91
2023-03-11T19:27:22.940Z,95564.57
2023-03-11T19:29:52.025Z,95564.84
2023-03-11T19:32:20.762Z,95560.56
2023-03-11T19:34:50.006Z,95553.99
2023-03-11T19:37:19.114Z,95503.85
2023-03-11T19:39:48.009Z,95498.73
2023-03-11T19:42:16.880Z,95495.80
2023-03-11T19:44:52.668Z,95488.45
2023-03-11T19:47:21.633Z,95489.27
2023-03-11T19:49:50.260Z,95489.14
2023-03-11T19:52:19.257Z,95483.30
2023-03-11T19:54:48.039Z,95484.96
2023-03-11T19:57:17.504Z,95472.16
2023-03-11T19:59:46.695Z,95475.88
2023-03-11T20:02:18.979Z,95479.89
2023-03-11T20:04:48.129Z,95485.55
2023-03-11T20:07:17.147Z,95479.15
2023-03-11T20:09:50.347Z,95482.66
2023-03-11T20:12:19.159Z,95484.20
2023-03-11T20:14:49.656Z,95488.38
2023-03-11T20:17:18.649Z,95492.66
2023-03-11T20:19:48.212Z,95492.60
2023-03-11T20:22:17.733Z,95491.79
2023-03-11T20:24:47.058Z,95492.25
2023-03-11T20:27:15.991Z,95484.30
2023-03-11T20:29:45.095Z,95474.91
2023-03-11T20:32:13.941Z,95472.61
2023-03-11T20:34:43.129Z,95467.93
2023-03-11T20:37:13.827Z,95461.13
2023-03-11T20:39:43.765Z,95465.41
2023-03-11T20:42:12.491Z,95459.95
2023-03-11T20:44:41.599Z,95461.02
2023-03-11T20:47:11.341Z,95456.05
2023-03-11T20:49:40.379Z,95452.34
2023-03-11T20:52:09.103Z,95452.06
2023-03-11T20:54:43.779Z,95446.31
2023-03-11T20:57:13.902Z,95449.78
2023-03-11T20:59:42.684Z,95446.52
2023-03-11T21:02:11.891Z,95443.80
2023-03-11T21:04:43.195Z,95446.48
2023-03-11T21:07:14.590Z,95437.05
2023-03-11T21:09:43.742Z,95433.63
2023-03-11T21:12:13.367Z,95422.56
2023-03-11T21:14:45.679Z,95418.33
2023-03-11T21:17:15.067Z,95407.05
2023-03-11T21:19:44.924Z,95400.83
2023-03-11T21:22:13.752Z,95393.83
2023-03-11T21:24:42.531Z,95396.46
2023-03-11T21:27:11.291Z,95393.61
2023-03-11T21:29:40.836Z,95389.59
2023-03-11T21:32:09.722Z,95386.95
2023-03-11T21:34:38.573Z,95383.86
2023-03-11T21:37:07.977Z,95389.58
2023-03-11T21:39:37.248Z,95377.13
2023-03-11T21:42:06.167Z,95372.80
2023-03-11T21:44:36.124Z,95372.23
2023-03-11T21:47:05.109Z,95367.89
2023-03-11T21:49:39.123Z,95367.15
2023-03-11T21:52:08.015Z,95363.91
2023-03-11T21:54:36.915Z,95368.30
2023-03-11T21:57:05.919Z,95361.13
2023-03-11T21:59:34.903Z,95355.73
2023-03-11T22:02:03.879Z,95354.92
2023-03-11T22:04:33.058Z,95342.60
2023-03-11T22:07:01.960Z,95319.32
2023-03-11T22:09:36.203Z,95317.02
2023-03-11T22:12:06.829Z,95311.85
2023-03-11T22:14:35.740Z,95319.51
2023-03-11T22:17:04.651Z,95321.91
2023-03-11T22:19:34.132Z,95328.62
2023-03-11T22:22:03.319Z,95327.29
2023-03-11T22:24:36.482Z,95320.39
2023-03-11T22:27:05.060Z,95329.30
2023-03-11T22:29:33.955Z,95323.55
2023-03-11T22:32:03.582Z,95325.52
2023-03-11T22:34:33.068Z,95320.43
2023-03-11T22:37:02.471Z,95321.94
2023-03-11T22:39:31.055Z,95316.84
2023-03-11T22:42:00.458Z,95317.27
2023-03-11T22:44:34.162Z,95315.56
2023-03-11T22:47:03.059Z,95316.08
2023-03-11T22:49:31.839Z,95319.01
2023-03-11T22:52:00.553Z,95317.17
2023-03-11T22:54:30.104Z,95309.52
2023-03-11T22:57:02.300Z,95311.70
2023-03-11T22:59:31.291Z,95301.30
2023-03-11T23:02:00.388Z,95298.05
2023-03-11T23:04:29.023Z,95295.73
2023-03-11T23:06:57.678Z,95295.88
2023-03-11T23:09:26.374Z,95291.39
2023-03-11T23:11:56.034Z,95283.63
2023-03-11T23:14:37.746Z,95279.96
2023-03-11T23:17:11.056Z,95271.98
2023-03-11T23:19:41.050Z,95269.12
2023-03-11T23:22:09.986Z,95264.23
2023-03-11T23:24:45.896Z,95260.10
2023-03-11T23:27:14.683Z,95268.45
2023-03-11T23:29:48.080Z,95260.34
2023-03-11T23:32:19.400Z,95253.02
2023-03-11T23:34:48.236Z,95259.27
2023-03-11T23:37:17.324Z,95256.27
2023-03-11T23:39:46.620Z,95252.23
2023-03-11T23:42:25.554Z,95252.06
2023-03-11T23:44:58.124Z,95246.75
2023-03-11T23:47:27.720Z,95248.92
2023-03-11T23:49:56.610Z,95251.34
2023-03-11T23:52:25.603Z,95251.86
2023-03-11T23:54:54.392Z,95249.23
2023-03-11T23:57:23.389Z,95249.96
2023-03-11T23:59:52.060Z,95246.85
